sensor_id;sensor_type;location;lat;lon;timestamp;temperature;humidity
43607;DHT22;29197;44.788;10.366;2022-09-20T00:00:47;19.50;99.90
43607;DHT22;29197;44.788;10.366;2022-09-20T00:03:38;19.50;99.90
43607;DHT22;29197;44.788;10.366;2022-09-20T00:06:29;19.40;99.90
43607;DHT22;29197;44.788;10.366;2022-09-20T00:09:19;19.30;99.90
43607;DHT22;29197;44.788;10.366;2022-09-20T00:12:08;19.30;99.90
43607;DHT22;29197;44.788;10.366;2022-09-20T00:14:56;19.30;99.90
43607;DHT22;29197;44.788;10.366;2022-09-20T00:17:47;19.30;99.90
43607;DHT22;29197;44.788;10.366;2022-09-20T00:20:42;19.30;99.90
43607;DHT22;29197;44.788;10.366;2022-09-20T00:23:32;19.30;99.90
43607;DHT22;29197;44.788;10.366;2022-09-20T00:26:23;19.30;99.90
43607;DHT22;29197;44.788;10.366;2022-09-20T00:29:12;19.30;99.90
43607;DHT22;29197;44.788;10.366;2022-09-20T00:32:02;19.20;99.90
43607;DHT22;29197;44.788;10.366;2022-09-20T00:34:53;19.20;99.90
43607;DHT22;29197;44.788;10.366;2022-09-20T05:11:45;17.80;99.90
43607;DHT22;29197;44.788;10.366;2022-09-20T05:14:57;17.60;99.90
43607;DHT22;29197;44.788;10.366;2022-09-20T05:18:12;17.50;99.90
43607;DHT22;29197;44.788;10.366;2022-09-20T05:21:14;17.40;99.90
43607;DHT22;29197;44.788;10.366;2022-09-20T05:24:19;17.40;99.90
43607;DHT22;29197;44.788;10.366;2022-09-20T05:27:28;17.40;99.90
43607;DHT22;29197;44.788;10.366;2022-09-20T05:30:30;17.30;99.90
43607;DHT22;29197;44.788;10.366;2022-09-20T05:33:25;17.40;99.90
43607;DHT22;29197;44.788;10.366;2022-09-20T05:36:22;17.60;99.90
43607;DHT22;29197;44.788;10.366;2022-09-20T05:39:32;17.70;99.90
43607;DHT22;29197;44.788;10.366;2022-09-20T05:42:33;17.70;99.90
43607;DHT22;29197;44.788;10.366;2022-09-20T05:45:46;17.70;99.90
43607;DHT22;29197;44.788;10.366;2022-09-20T05:48:39;17.80;99.90
43607;DHT22;29197;44.788;10.366;2022-09-20T05:51:46;17.70;99.90
43607;DHT22;29197;44.788;10.366;2022-09-20T05:55:03;17.70;99.90
43607;DHT22;29197;44.788;10.366;2022-09-20T05:58:09;17.70;99.90
43607;DHT22;29197;44.788;10.366;2022-09-20T06:01:03;17.60;99.90
43607;DHT22;29197;44.788;10.366;2022-09-20T06:04:00;17.60;99.90
43607;DHT22;29197;44.788;10.366;2022-09-20T06:06:58;17.60;99.90
43607;DHT22;29197;44.788;10.366;2022-09-20T06:10:08;17.60;99.90
43607;DHT22;29197;44.788;10.366;2022-09-20T06:13:14;17.60;99.90
43607;DHT22;29197;44.788;10.366;2022-09-20T06:16:17;17.60;99.90
43607;DHT22;29197;44.788;10.366;2022-09-20T06:19:15;17.60;99.90
43607;DHT22;29197;44.788;10.366;2022-09-20T06:22:13;17.60;99.90
43607;DHT22;29197;44.788;10.366;2022-09-20T06:25:18;17.60;99.90
43607;DHT22;29197;44.788;10.366;2022-09-20T06:28:15;17.50;99.90
43607;DHT22;29197;44.788;10.366;2022-09-20T06:31:05;17.30;99.90
43607;DHT22;29197;44.788;10.366;2022-09-20T06:33:57;17.50;99.90
43607;DHT22;29197;44.788;10.366;2022-09-20T06:36:53;17.60;99.90
43607;DHT22;29197;44.788;10.366;2022-09-20T06:40:18;17.60;99.90
43607;DHT22;29197;44.788;10.366;2022-09-20T06:43:29;17.70;99.90
43607;DHT22;29197;44.788;10.366;2022-09-20T06:46:19;17.80;99.90
43607;DHT22;29197;44.788;10.366;2022-09-20T06:49:08;17.80;99.90
43607;DHT22;29197;44.788;10.366;2022-09-20T06:51:57;17.80;99.90
43607;DHT22;29197;44.788;10.366;2022-09-20T06:54:48;17.80;99.90
43607;DHT22;29197;44.788;10.366;2022-09-20T06:57:40;17.80;99.90
43607;DHT22;29197;44.788;10.366;2022-09-20T07:00:30;17.80;99.90
43607;DHT22;29197;44.788;10.366;2022-09-20T07:03:20;17.90;99.90
43607;DHT22;29197;44.788;10.366;2022-09-20T07:06:10;17.90;99.90
43607;DHT22;29197;44.788;10.366;2022-09-20T07:09:00;18.00;99.90
43607;DHT22;29197;44.788;10.366;2022-09-20T07:11:50;18.00;99.90
43607;DHT22;29197;44.788;10.366;2022-09-20T07:14:39;18.20;99.90
43607;DHT22;29197;44.788;10.366;2022-09-20T07:17:30;18.10;99.90
43607;DHT22;29197;44.788;10.366;2022-09-20T07:20:20;18.20;99.90
43607;DHT22;29197;44.788;10.366;2022-09-20T07:23:09;18.30;99.90
43607;DHT22;29197;44.788;10.366;2022-09-20T07:25:58;18.40;99.90
43607;DHT22;29197;44.788;10.366;2022-09-20T07:28:48;18.50;99.90
43607;DHT22;29197;44.788;10.366;2022-09-20T07:31:37;18.60;99.90
43607;DHT22;29197;44.788;10.366;2022-09-20T07:34:27;18.60;99.90
43607;DHT22;29197;44.788;10.366;2022-09-20T07:37:16;18.60;99.90
43607;DHT22;29197;44.788;10.366;2022-09-20T07:40:08;18.50;99.90
43607;DHT22;29197;44.788;10.366;2022-09-20T07:42:57;18.60;99.90
43607;DHT22;29197;44.788;10.366;2022-09-20T07:45:49;18.90;99.90
43607;DHT22;29197;44.788;10.366;2022-09-20T07:48:41;19.20;99.90
43607;DHT22;29197;44.788;10.366;2022-09-20T07:51:32;19.40;99.90
43607;DHT22;29197;44.788;10.366;2022-09-20T07:54:21;19.60;99.90
43607;DHT22;29197;44.788;10.366;2022-09-20T07:57:10;19.70;99.90
43607;DHT22;29197;44.788;10.366;2022-09-20T07:59:59;19.80;99.90
43607;DHT22;29197;44.788;10.366;2022-09-20T08:02:56;19.80;99.90
43607;DHT22;29197;44.788;10.366;2022-09-20T08:05:47;19.90;99.90
43607;DHT22;29197;44.788;10.366;2022-09-20T08:08:39;20.00;99.90
43607;DHT22;29197;44.788;10.366;2022-09-20T08:11:28;20.10;99.90
43607;DHT22;29197;44.788;10.366;2022-09-20T08:14:18;20.20;99.90
43607;DHT22;29197;44.788;10.366;2022-09-20T08:17:09;20.20;99.90
43607;DHT22;29197;44.788;10.366;2022-09-20T08:19:58;20.10;99.90
43607;DHT22;29197;44.788;10.366;2022-09-20T08:22:47;19.90;99.90
43607;DHT22;29197;44.788;10.366;2022-09-20T08:25:58;19.70;99.90
43607;DHT22;29197;44.788;10.366;2022-09-20T08:28:51;19.70;99.90
43607;DHT22;29197;44.788;10.366;2022-09-20T08:31:40;19.90;99.90
43607;DHT22;29197;44.788;10.366;2022-09-20T08:34:29;19.80;99.90
43607;DHT22;29197;44.788;10.366;2022-09-20T08:37:18;19.90;99.90
43607;DHT22;29197;44.788;10.366;2022-09-20T08:40:08;20.00;99.90
43607;DHT22;29197;44.788;10.366;2022-09-20T08:43:01;20.10;99.90
43607;DHT22;29197;44.788;10.366;2022-09-20T08:45:52;20.20;99.90
43607;DHT22;29197;44.788;10.366;2022-09-20T08:48:42;20.20;99.90
43607;DHT22;29197;44.788;10.366;2022-09-20T08:51:33;20.20;99.90
43607;DHT22;29197;44.788;10.366;2022-09-20T08:54:23;20.20;99.90
43607;DHT22;29197;44.788;10.366;2022-09-20T08:57:15;20.30;99.90
43607;DHT22;29197;44.788;10.366;2022-09-20T09:00:14;20.30;99.90
43607;DHT22;29197;44.788;10.366;2022-09-20T09:03:09;20.30;99.90
43607;DHT22;29197;44.788;10.366;2022-09-20T09:05:59;20.30;99.90
43607;DHT22;29197;44.788;10.366;2022-09-20T09:08:57;20.30;99.90
43607;DHT22;29197;44.788;10.366;2022-09-20T09:11:47;20.40;99.90
43607;DHT22;29197;44.788;10.366;2022-09-20T09:14:38;20.40;99.90
43607;DHT22;29197;44.788;10.366;2022-09-20T09:17:40;20.40;99.90
43607;DHT22;29197;44.788;10.366;2022-09-20T09:20:39;20.50;99.90
43607;DHT22;29197;44.788;10.366;2022-09-20T09:23:29;20.50;99.90
43607;DHT22;29197;44.788;10.366;2022-09-20T09:26:23;20.70;99.90
43607;DHT22;29197;44.788;10.366;2022-09-20T09:29:16;20.70;99.90
43607;DHT22;29197;44.788;10.366;2022-09-20T09:32:20;20.80;99.90
43607;DHT22;29197;44.788;10.366;2022-09-20T09:35:23;20.80;99.90
43607;DHT22;29197;44.788;10.366;2022-09-20T09:38:18;20.90;99.90
43607;DHT22;29197;44.788;10.366;2022-09-20T09:41:22;20.80;99.90
43607;DHT22;29197;44.788;10.366;2022-09-20T09:44:23;20.90;99.90
43607;DHT22;29197;44.788;10.366;2022-09-20T09:47:24;21.10;99.90
43607;DHT22;29197;44.788;10.366;2022-09-20T09:50:23;21.20;99.90
43607;DHT22;29197;44.788;10.366;2022-09-20T09:53:20;21.30;99.90
43607;DHT22;29197;44.788;10.366;2022-09-20T09:59:52;21.40;99.90
43607;DHT22;29197;44.788;10.366;2022-09-20T10:03:18;21.60;99.90
43607;DHT22;29197;44.788;10.366;2022-09-20T10:06:16;21.70;99.90
43607;DHT22;29197;44.788;10.366;2022-09-20T10:12:35;21.90;99.90
43607;DHT22;29197;44.788;10.366;2022-09-20T10:15:31;22.00;99.90
43607;DHT22;29197;44.788;10.366;2022-09-20T10:18:40;22.10;99.90
43607;DHT22;29197;44.788;10.366;2022-09-20T10:21:40;22.20;99.90
43607;DHT22;29197;44.788;10.366;2022-09-20T10:24:39;22.30;99.90
43607;DHT22;29197;44.788;10.366;2022-09-20T10:27:49;22.50;99.90
43607;DHT22;29197;44.788;10.366;2022-09-20T10:30:46;22.70;99.90
43607;DHT22;29197;44.788;10.366;2022-09-20T10:33:50;22.80;99.90
43607;DHT22;29197;44.788;10.366;2022-09-20T10:36:50;22.90;99.90
43607;DHT22;29197;44.788;10.366;2022-09-20T10:39:40;23.00;99.90
43607;DHT22;29197;44.788;10.366;2022-09-20T10:42:37;23.10;99.90
43607;DHT22;29197;44.788;10.366;2022-09-20T10:45:50;23.30;99.90
43607;DHT22;29197;44.788;10.366;2022-09-20T10:49:10;23.40;99.90
43607;DHT22;29197;44.788;10.366;2022-09-20T10:52:14;23.60;99.90
43607;DHT22;29197;44.788;10.366;2022-09-20T10:58:39;23.80;99.90
43607;DHT22;29197;44.788;10.366;2022-09-20T11:01:33;23.70;99.90
43607;DHT22;29197;44.788;10.366;2022-09-20T11:04:54;23.80;99.90
43607;DHT22;29197;44.788;10.366;2022-09-20T11:07:57;24.00;99.90
43607;DHT22;29197;44.788;10.366;2022-09-20T11:10:50;24.20;99.90
43607;DHT22;29197;44.788;10.366;2022-09-20T11:13:44;24.50;99.90
43607;DHT22;29197;44.788;10.366;2022-09-20T11:16:38;24.70;99.90
43607;DHT22;29197;44.788;10.366;2022-09-20T11:19:34;24.90;99.90
43607;DHT22;29197;44.788;10.366;2022-09-20T11:22:31;25.00;99.90
43607;DHT22;29197;44.788;10.366;2022-09-20T11:25:29;25.10;99.90
43607;DHT22;29197;44.788;10.366;2022-09-20T11:28:23;25.20;99.90
43607;DHT22;29197;44.788;10.366;2022-09-20T11:31:18;25.30;99.90
43607;DHT22;29197;44.788;10.366;2022-09-20T11:34:11;25.50;99.90
43607;DHT22;29197;44.788;10.366;2022-09-20T11:37:04;25.70;99.90
43607;DHT22;29197;44.788;10.366;2022-09-20T11:39:54;25.90;99.90
43607;DHT22;29197;44.788;10.366;2022-09-20T11:42:44;26.10;99.90
43607;DHT22;29197;44.788;10.366;2022-09-20T11:45:36;26.20;99.90
43607;DHT22;29197;44.788;10.366;2022-09-20T11:48:28;26.40;99.90
43607;DHT22;29197;44.788;10.366;2022-09-20T11:51:33;26.30;99.90
43607;DHT22;29197;44.788;10.366;2022-09-20T11:54:38;26.30;99.90
43607;DHT22;29197;44.788;10.366;2022-09-20T11:57:30;26.40;99.90
43607;DHT22;29197;44.788;10.366;2022-09-20T12:03:26;26.70;99.90
43607;DHT22;29197;44.788;10.366;2022-09-20T12:06:25;26.90;99.90
43607;DHT22;29197;44.788;10.366;2022-09-20T12:09:23;26.90;99.90
43607;DHT22;29197;44.788;10.366;2022-09-20T12:12:26;27.00;99.90
43607;DHT22;29197;44.788;10.366;2022-09-20T12:15:26;26.90;99.90
43607;DHT22;29197;44.788;10.366;2022-09-20T12:18:35;26.90;99.90
43607;DHT22;29197;44.788;10.366;2022-09-20T12:21:24;27.20;99.90
43607;DHT22;29197;44.788;10.366;2022-09-20T12:30:16;27.70;99.90
43607;DHT22;29197;44.788;10.366;2022-09-20T12:33:17;27.50;99.90
43607;DHT22;29197;44.788;10.366;2022-09-20T12:36:25;27.50;99.90
43607;DHT22;29197;44.788;10.366;2022-09-20T12:39:15;27.60;99.90
43607;DHT22;29197;44.788;10.366;2022-09-20T12:42:25;27.60;99.90
43607;DHT22;29197;44.788;10.366;2022-09-20T12:45:17;27.60;99.90
43607;DHT22;29197;44.788;10.366;2022-09-20T12:48:17;27.90;99.90
43607;DHT22;29197;44.788;10.366;2022-09-20T12:51:18;27.90;99.90
43607;DHT22;29197;44.788;10.366;2022-09-20T12:54:27;28.00;99.90
43607;DHT22;29197;44.788;10.366;2022-09-20T12:57:17;28.20;99.90
43607;DHT22;29197;44.788;10.366;2022-09-20T13:00:28;28.20;99.90
43607;DHT22;29197;44.788;10.366;2022-09-20T13:03:26;28.00;99.90
43607;DHT22;29197;44.788;10.366;2022-09-20T13:06:23;28.00;99.40
43607;DHT22;29197;44.788;10.366;2022-09-20T13:09:12;28.10;99.90
43607;DHT22;29197;44.788;10.366;2022-09-20T13:12:02;28.20;99.90
43607;DHT22;29197;44.788;10.366;2022-09-20T13:14:53;28.30;99.90
43607;DHT22;29197;44.788;10.366;2022-09-20T13:17:43;28.30;99.90
43607;DHT22;29197;44.788;10.366;2022-09-20T13:20:34;27.80;99.40
43607;DHT22;29197;44.788;10.366;2022-09-20T13:23:26;27.70;99.90
43607;DHT22;29197;44.788;10.366;2022-09-20T13:26:19;27.60;99.40
43607;DHT22;29197;44.788;10.366;2022-09-20T13:29:21;27.70;99.20
43607;DHT22;29197;44.788;10.366;2022-09-20T13:32:17;27.70;97.70
43607;DHT22;29197;44.788;10.366;2022-09-20T13:35:12;27.80;97.90
43607;DHT22;29197;44.788;10.366;2022-09-20T13:38:04;27.80;98.20
43607;DHT22;29197;44.788;10.366;2022-09-20T13:41:01;28.00;98.40
43607;DHT22;29197;44.788;10.366;2022-09-20T13:43:52;28.20;98.10
43607;DHT22;29197;44.788;10.366;2022-09-20T13:46:43;28.30;98.30
43607;DHT22;29197;44.788;10.366;2022-09-20T13:49:32;28.50;99.90
43607;DHT22;29197;44.788;10.366;2022-09-20T13:52:23;28.20;99.90
43607;DHT22;29197;44.788;10.366;2022-09-20T13:55:28;28.10;99.90
43607;DHT22;29197;44.788;10.366;2022-09-20T13:58:20;28.10;99.90
43607;DHT22;29197;44.788;10.366;2022-09-20T14:01:21;28.10;99.90
43607;DHT22;29197;44.788;10.366;2022-09-20T14:04:14;28.10;99.90
43607;DHT22;29197;44.788;10.366;2022-09-20T14:07:05;28.20;99.90
43607;DHT22;29197;44.788;10.366;2022-09-20T14:09:58;28.30;99.60
43607;DHT22;29197;44.788;10.366;2022-09-20T14:12:48;28.30;99.90
43607;DHT22;29197;44.788;10.366;2022-09-20T14:15:41;28.30;99.70
43607;DHT22;29197;44.788;10.366;2022-09-20T14:18:31;28.30;99.40
43607;DHT22;29197;44.788;10.366;2022-09-20T14:21:23;28.30;99.90
43607;DHT22;29197;44.788;10.366;2022-09-20T14:24:27;28.30;99.90
43607;DHT22;29197;44.788;10.366;2022-09-20T14:27:19;28.30;99.10
43607;DHT22;29197;44.788;10.366;2022-09-20T14:30:28;28.30;99.00
43607;DHT22;29197;44.788;10.366;2022-09-20T14:33:20;28.40;98.20
43607;DHT22;29197;44.788;10.366;2022-09-20T14:36:13;28.00;99.90
43607;DHT22;29197;44.788;10.366;2022-09-20T14:39:04;27.90;99.90
43607;DHT22;29197;44.788;10.366;2022-09-20T14:41:59;27.80;99.90
43607;DHT22;29197;44.788;10.366;2022-09-20T14:44:51;27.80;99.90
43607;DHT22;29197;44.788;10.366;2022-09-20T14:47:53;27.80;99.90
43607;DHT22;29197;44.788;10.366;2022-09-20T14:50:44;27.70;99.90
43607;DHT22;29197;44.788;10.366;2022-09-20T14:53:34;27.60;97.60
43607;DHT22;29197;44.788;10.366;2022-09-20T14:56:32;27.60;97.60
43607;DHT22;29197;44.788;10.366;2022-09-20T15:02:14;27.30;97.20
43607;DHT22;29197;44.788;10.366;2022-09-20T15:05:15;27.30;97.50
43607;DHT22;29197;44.788;10.366;2022-09-20T15:08:10;27.20;97.60
43607;DHT22;29197;44.788;10.366;2022-09-20T15:11:00;27.10;97.50
43607;DHT22;29197;44.788;10.366;2022-09-20T15:16:39;26.90;96.90
43607;DHT22;29197;44.788;10.366;2022-09-20T15:28:54;26.70;98.60
43607;DHT22;29197;44.788;10.366;2022-09-20T15:31:45;26.50;98.60
43607;DHT22;29197;44.788;10.366;2022-09-20T15:37:24;26.20;99.90
43607;DHT22;29197;44.788;10.366;2022-09-20T15:40:13;26.10;98.90
43607;DHT22;29197;44.788;10.366;2022-09-20T15:43:02;25.90;99.90
43607;DHT22;29197;44.788;10.366;2022-09-20T15:45:54;25.80;99.90
43607;DHT22;29197;44.788;10.366;2022-09-20T15:48:44;25.70;99.90
43607;DHT22;29197;44.788;10.366;2022-09-20T15:51:34;25.60;99.90
43607;DHT22;29197;44.788;10.366;2022-09-20T15:54:23;25.60;99.50
43607;DHT22;29197;44.788;10.366;2022-09-20T15:57:13;25.30;99.70
43607;DHT22;29197;44.788;10.366;2022-09-20T16:00:02;25.30;99.90
43607;DHT22;29197;44.788;10.366;2022-09-20T16:02:53;25.20;99.90
43607;DHT22;29197;44.788;10.366;2022-09-20T16:05:42;25.10;99.90
43607;DHT22;29197;44.788;10.366;2022-09-20T16:08:32;25.00;99.90
43607;DHT22;29197;44.788;10.366;2022-09-20T16:11:22;24.90;99.90
43607;DHT22;29197;44.788;10.366;2022-09-20T16:14:14;24.80;99.90
43607;DHT22;29197;44.788;10.366;2022-09-20T16:17:03;24.70;99.90
43607;DHT22;29197;44.788;10.366;2022-09-20T16:19:53;24.60;99.90
43607;DHT22;29197;44.788;10.366;2022-09-20T16:25:31;24.50;99.90
43607;DHT22;29197;44.788;10.366;2022-09-20T16:28:20;24.40;99.90
43607;DHT22;29197;44.788;10.366;2022-09-20T16:31:27;24.30;99.90
43607;DHT22;29197;44.788;10.366;2022-09-20T16:37:11;24.10;99.90
43607;DHT22;29197;44.788;10.366;2022-09-20T16:42:53;23.90;99.90
43607;DHT22;29197;44.788;10.366;2022-09-20T16:45:44;23.80;99.90
43607;DHT22;29197;44.788;10.366;2022-09-20T16:48:34;23.70;99.90
43607;DHT22;29197;44.788;10.366;2022-09-20T16:51:24;23.70;99.90
43607;DHT22;29197;44.788;10.366;2022-09-20T16:54:19;23.60;99.90
43607;DHT22;29197;44.788;10.366;2022-09-20T18:02:30;22.90;99.90
43607;DHT22;29197;44.788;10.366;2022-09-20T18:05:20;22.70;99.90
43607;DHT22;29197;44.788;10.366;2022-09-20T18:08:09;22.70;99.90
43607;DHT22;29197;44.788;10.366;2022-09-20T18:10:58;22.60;99.90
43607;DHT22;29197;44.788;10.366;2022-09-20T18:13:47;22.50;99.90
43607;DHT22;29197;44.788;10.366;2022-09-20T18:16:37;22.40;99.90
43607;DHT22;29197;44.788;10.366;2022-09-20T18:19:27;22.40;99.90
43607;DHT22;29197;44.788;10.366;2022-09-20T18:22:19;22.30;99.90
43607;DHT22;29197;44.788;10.366;2022-09-20T18:25:09;22.30;99.90
43607;DHT22;29197;44.788;10.366;2022-09-20T18:27:58;22.20;99.90
43607;DHT22;29197;44.788;10.366;2022-09-20T18:30:57;22.20;99.90
43607;DHT22;29197;44.788;10.366;2022-09-20T18:33:47;22.10;99.90
43607;DHT22;29197;44.788;10.366;2022-09-20T18:36:38;22.10;99.90
43607;DHT22;29197;44.788;10.366;2022-09-20T18:39:29;22.10;99.90
43607;DHT22;29197;44.788;10.366;2022-09-20T18:42:19;22.10;99.90
43607;DHT22;29197;44.788;10.366;2022-09-20T18:45:09;22.00;99.90
43607;DHT22;29197;44.788;10.366;2022-09-20T18:47:59;22.00;99.90
43607;DHT22;29197;44.788;10.366;2022-09-20T18:50:58;22.00;99.90
43607;DHT22;29197;44.788;10.366;2022-09-20T18:53:49;22.00;99.90
43607;DHT22;29197;44.788;10.366;2022-09-20T18:56:41;22.00;99.90
43607;DHT22;29197;44.788;10.366;2022-09-20T18:59:30;21.90;99.90
43607;DHT22;29197;44.788;10.366;2022-09-20T19:02:40;21.90;99.90
43607;DHT22;29197;44.788;10.366;2022-09-20T19:05:42;21.90;99.90
43607;DHT22;29197;44.788;10.366;2022-09-20T19:08:37;21.80;99.90
43607;DHT22;29197;44.788;10.366;2022-09-20T19:11:32;21.80;99.90
43607;DHT22;29197;44.788;10.366;2022-09-20T19:14:26;21.80;99.90
43607;DHT22;29197;44.788;10.366;2022-09-20T19:17:23;21.80;99.90
43607;DHT22;29197;44.788;10.366;2022-09-20T19:20:19;21.70;99.90
43607;DHT22;29197;44.788;10.366;2022-09-20T19:23:27;21.60;99.90
43607;DHT22;29197;44.788;10.366;2022-09-20T19:26:20;21.60;99.90
43607;DHT22;29197;44.788;10.366;2022-09-20T19:29:16;21.60;99.90
43607;DHT22;29197;44.788;10.366;2022-09-20T19:55:26;21.20;99.90
43607;DHT22;29197;44.788;10.366;2022-09-20T19:58:17;21.30;99.90
43607;DHT22;29197;44.788;10.366;2022-09-20T20:01:07;21.30;99.90
43607;DHT22;29197;44.788;10.366;2022-09-20T20:03:59;21.20;99.90
43607;DHT22;29197;44.788;10.366;2022-09-20T20:06:56;21.20;99.90
43607;DHT22;29197;44.788;10.366;2022-09-20T20:09:51;21.20;99.90
43607;DHT22;29197;44.788;10.366;2022-09-20T20:12:49;21.10;99.90
43607;DHT22;29197;44.788;10.366;2022-09-20T20:15:45;21.10;99.90
43607;DHT22;29197;44.788;10.366;2022-09-20T20:18:42;21.10;99.90
43607;DHT22;29197;44.788;10.366;2022-09-20T20:21:45;20.90;99.90
43607;DHT22;29197;44.788;10.366;2022-09-20T20:24:38;21.00;99.90
43607;DHT22;29197;44.788;10.366;2022-09-20T20:27:29;20.80;99.90
43607;DHT22;29197;44.788;10.366;2022-09-20T20:30:19;20.80;99.90
43607;DHT22;29197;44.788;10.366;2022-09-20T20:33:12;20.80;99.90
43607;DHT22;29197;44.788;10.366;2022-09-20T20:36:02;20.80;99.90
43607;DHT22;29197;44.788;10.366;2022-09-20T20:38:53;20.80;99.90
43607;DHT22;29197;44.788;10.366;2022-09-20T20:41:43;20.80;99.90
43607;DHT22;29197;44.788;10.366;2022-09-20T20:44:39;20.70;99.90
43607;DHT22;29197;44.788;10.366;2022-09-20T20:47:29;20.60;99.90
43607;DHT22;29197;44.788;10.366;2022-09-20T20:50:18;20.60;99.90
43607;DHT22;29197;44.788;10.366;2022-09-20T20:53:07;20.60;99.90
43607;DHT22;29197;44.788;10.366;2022-09-20T20:56:03;20.60;99.90
43607;DHT22;29197;44.788;10.366;2022-09-20T20:58:54;20.60;99.90
43607;DHT22;29197;44.788;10.366;2022-09-20T21:01:47;20.50;99.90
43607;DHT22;29197;44.788;10.366;2022-09-20T21:04:37;20.60;99.90
43607;DHT22;29197;44.788;10.366;2022-09-20T21:07:27;20.50;99.90
43607;DHT22;29197;44.788;10.366;2022-09-20T21:10:17;20.50;99.90
43607;DHT22;29197;44.788;10.366;2022-09-20T21:13:10;20.40;99.90
43607;DHT22;29197;44.788;10.366;2022-09-20T21:16:03;20.40;99.90
43607;DHT22;29197;44.788;10.366;2022-09-20T21:18:54;20.50;99.90
43607;DHT22;29197;44.788;10.366;2022-09-20T21:21:44;20.40;99.90
43607;DHT22;29197;44.788;10.366;2022-09-20T21:24:34;20.40;99.90
43607;DHT22;29197;44.788;10.366;2022-09-20T21:27:23;20.40;99.90
43607;DHT22;29197;44.788;10.366;2022-09-20T21:30:14;20.30;99.90
43607;DHT22;29197;44.788;10.366;2022-09-20T21:33:04;20.30;99.90
43607;DHT22;29197;44.788;10.366;2022-09-20T21:35:57;20.30;99.90
43607;DHT22;29197;44.788;10.366;2022-09-20T21:41:37;20.10;99.90
43607;DHT22;29197;44.788;10.366;2022-09-20T21:44:26;20.10;99.90
43607;DHT22;29197;44.788;10.366;2022-09-20T21:47:18;20.10;99.90
43607;DHT22;29197;44.788;10.366;2022-09-20T21:50:08;20.10;99.90
43607;DHT22;29197;44.788;10.366;2022-09-20T21:52:57;20.10;99.90
43607;DHT22;29197;44.788;10.366;2022-09-20T21:55:46;20.10;99.90
43607;DHT22;29197;44.788;10.366;2022-09-20T21:58:35;20.10;99.90
43607;DHT22;29197;44.788;10.366;2022-09-20T22:01:27;19.90;99.90
43607;DHT22;29197;44.788;10.366;2022-09-20T22:04:21;19.80;99.90
43607;DHT22;29197;44.788;10.366;2022-09-20T22:07:10;19.80;99.90
43607;DHT22;29197;44.788;10.366;2022-09-20T22:10:00;19.80;99.90
43607;DHT22;29197;44.788;10.366;2022-09-20T22:12:48;19.80;99.90
43607;DHT22;29197;44.788;10.366;2022-09-20T22:15:38;19.80;99.90
43607;DHT22;29197;44.788;10.366;2022-09-20T22:18:27;19.80;99.90
43607;DHT22;29197;44.788;10.366;2022-09-20T22:21:19;19.80;99.90
43607;DHT22;29197;44.788;10.366;2022-09-20T22:24:10;19.70;99.90
43607;DHT22;29197;44.788;10.366;2022-09-20T22:26:59;19.70;99.90
43607;DHT22;29197;44.788;10.366;2022-09-20T22:29:49;19.70;99.90
43607;DHT22;29197;44.788;10.366;2022-09-20T22:32:38;19.60;99.90
43607;DHT22;29197;44.788;10.366;2022-09-20T22:35:29;19.60;99.90
43607;DHT22;29197;44.788;10.366;2022-09-20T22:38:19;19.60;99.90
43607;DHT22;29197;44.788;10.366;2022-09-20T22:41:08;19.60;99.90
43607;DHT22;29197;44.788;10.366;2022-09-20T22:46:33;19.60;99.90
43607;DHT22;29197;44.788;10.366;2022-09-20T22:49:23;19.50;99.90
43607;DHT22;29197;44.788;10.366;2022-09-20T22:52:12;19.40;99.90
43607;DHT22;29197;44.788;10.366;2022-09-20T22:55:03;19.30;99.90
43607;DHT22;29197;44.788;10.366;2022-09-20T22:57:52;19.40;99.90
43607;DHT22;29197;44.788;10.366;2022-09-20T23:03:31;19.10;99.90
43607;DHT22;29197;44.788;10.366;2022-09-20T23:06:22;19.10;99.90
43607;DHT22;29197;44.788;10.366;2022-09-20T23:09:14;19.10;99.90
43607;DHT22;29197;44.788;10.366;2022-09-20T23:12:05;19.10;99.90
43607;DHT22;29197;44.788;10.366;2022-09-20T23:20:34;18.40;99.90
43607;DHT22;29197;44.788;10.366;2022-09-20T23:23:23;18.30;99.90
43607;DHT22;29197;44.788;10.366;2022-09-20T23:26:13;18.50;99.90
43607;DHT22;29197;44.788;10.366;2022-09-20T23:29:06;18.60;99.90
43607;DHT22;29197;44.788;10.366;2022-09-20T23:31:55;18.40;99.90
43607;DHT22;29197;44.788;10.366;2022-09-20T23:34:44;18.30;99.90
43607;DHT22;29197;44.788;10.366;2022-09-20T23:37:34;18.40;99.90
43607;DHT22;29197;44.788;10.366;2022-09-20T23:40:23;18.60;99.90
43607;DHT22;29197;44.788;10.366;2022-09-20T23:43:12;18.60;99.90
43607;DHT22;29197;44.788;10.366;2022-09-20T23:46:04;18.70;99.90
43607;DHT22;29197;44.788;10.366;2022-09-20T23:48:53;18.70;99.90
43607;DHT22;29197;44.788;10.366;2022-09-20T23:51:42;18.90;99.90
43607;DHT22;29197;44.788;10.366;2022-09-20T23:54:32;18.90;99.90
43607;DHT22;29197;44.788;10.366;2022-09-20T23:57:21;18.80;99.90
